Time;durP1;ratioP1;P1;durP2;ratioP2;P2;SDS_P1;SDS_P2;PMS_P1;PMS_P2;Temp;Humidity;BMP_temperature;BMP_pressure;BME280_temperature;BME280_humidity;BME280_pressure;Samples;Min_cycle;Max_cycle;Signal;HPM_P1;HPM_P2
2021/06/21 00:01:45;;;;;;;12.90;4.72;;;25.80;99.90;;;;;;6188856;23;20183;-74
2021/06/21 00:04:12;;;;;;;12.13;4.75;;;25.80;99.90;;;;;;6188848;23;20172;-75
2021/06/21 00:06:39;;;;;;;15.13;4.85;;;25.70;99.90;;;;;;6178885;23;20175;-75
2021/06/21 00:09:08;;;;;;;14.30;4.97;;;25.70;99.90;;;;;;6182325;23;20187;-75
2021/06/21 00:11:35;;;;;;;19.38;6.88;;;25.70;99.90;;;;;;6180384;23;20183;-73
2021/06/21 00:14:02;;;;;;;20.73;6.07;;;25.80;99.90;;;;;;6176599;23;20244;-75
2021/06/21 00:16:29;;;;;;;25.55;6.97;;;25.90;99.90;;;;;;6179062;23;20202;-74
2021/06/21 00:18:56;;;;;;;25.65;6.53;;;25.90;99.90;;;;;;6180046;23;20211;-74
2021/06/21 00:21:24;;;;;;;15.02;5.47;;;25.90;99.90;;;;;;6177783;23;20182;-75
2021/06/21 00:23:51;;;;;;;15.20;4.65;;;25.90;99.90;;;;;;6177965;23;20210;-75
2021/06/21 00:26:19;;;;;;;9.13;4.70;;;25.90;99.90;;;;;;6193323;23;20171;-75
2021/06/21 00:28:46;;;;;;;6.97;4.07;;;25.70;99.90;;;;;;6188334;23;20209;-74
2021/06/21 00:31:13;;;;;;;8.07;4.07;;;25.60;99.90;;;;;;6182897;23;20199;-75
2021/06/21 00:33:41;;;;;;;8.50;4.25;;;25.50;99.90;;;;;;6179159;23;20684;-74
2021/06/21 00:36:08;;;;;;;9.32;4.55;;;25.50;99.90;;;;;;6179524;23;20200;-75
2021/06/21 00:38:35;;;;;;;9.27;4.70;;;25.40;99.90;;;;;;6176483;23;20206;-74
2021/06/21 00:41:02;;;;;;;11.30;5.13;;;25.30;99.90;;;;;;6179187;23;20445;-75
2021/06/21 00:43:31;;;;;;;11.13;5.15;;;25.20;99.90;;;;;;6175863;23;20207;-75
2021/06/21 00:45:58;;;;;;;11.05;4.90;;;25.00;99.90;;;;;;6177795;23;20171;-74
2021/06/21 00:48:25;;;;;;;9.60;4.78;;;24.90;99.90;;;;;;6178007;23;20210;-75
2021/06/21 00:50:53;;;;;;;11.25;5.43;;;24.80;99.90;;;;;;6184552;23;20186;-75
2021/06/21 00:53:21;;;;;;;11.20;4.68;;;24.80;99.90;;;;;;6187963;23;20217;-75
2021/06/21 00:55:48;;;;;;;12.25;6.03;;;24.90;99.90;;;;;;6180021;23;20584;-74
2021/06/21 00:58:15;;;;;;;10.70;5.57;;;25.00;99.90;;;;;;6179648;23;20203;-75
2021/06/21 01:00:44;;;;;;;9.55;4.93;;;24.90;99.90;;;;;;6180083;23;20171;-75
2021/06/21 01:03:11;;;;;;;6.70;4.55;;;24.80;99.90;;;;;;6179940;23;20699;-75
2021/06/21 01:05:39;;;;;;;10.52;5.30;;;24.80;99.90;;;;;;6180371;23;20176;-74
2021/06/21 01:08:07;;;;;;;11.10;5.55;;;24.90;99.90;;;;;;6180000;23;20239;-74
2021/06/21 01:10:36;;;;;;;7.25;4.55;;;24.80;99.90;;;;;;6181408;23;20180;-75
2021/06/21 01:13:36;;;;;;;10.15;4.80;;;24.90;99.90;;;;;;6189733;23;20210;-76
2021/06/21 01:16:18;;;;;;;8.60;5.15;;;24.90;99.90;;;;;;6182686;23;20192;-75
2021/06/21 01:18:53;;;;;;;10.05;4.70;;;24.80;99.90;;;;;;6180245;23;20214;-75
2021/06/21 01:21:54;;;;;;;6.80;4.75;;;24.80;99.90;;;;;;6181552;23;20167;-75
2021/06/21 01:24:58;;;;;;;8.02;4.40;;;24.70;99.90;;;;;;6141620;23;20207;-74
2021/06/21 01:27:34;;;;;;;7.25;3.95;;;24.70;99.90;;;;;;6180311;23;20168;-74
2021/06/21 01:30:08;;;;;;;8.20;4.53;;;24.80;99.90;;;;;;6179668;23;20207;-75
2021/06/21 01:32:42;;;;;;;10.35;5.55;;;24.80;99.90;;;;;;6181028;23;20195;-75
2021/06/21 01:35:16;;;;;;;13.25;6.70;;;24.70;99.90;;;;;;6179194;23;20199;-74
2021/06/21 01:37:45;;;;;;;13.50;5.80;;;24.50;99.90;;;;;;6180739;23;20238;-74
2021/06/21 01:40:14;;;;;;;14.45;6.35;;;24.40;99.90;;;;;;6186428;23;20263;-75
2021/06/21 01:42:42;;;;;;;10.38;5.70;;;24.20;99.90;;;;;;6206644;23;20192;-75
2021/06/21 01:45:11;;;;;;;9.75;5.72;;;24.10;99.90;;;;;;6195941;23;20727;-75
2021/06/21 01:47:44;;;;;;;9.75;5.57;;;24.20;99.90;;;;;;6179010;23;20184;-74
2021/06/21 01:50:12;;;;;;;11.65;5.82;;;24.30;99.90;;;;;;6179493;23;20199;-75
2021/06/21 01:52:43;;;;;;;10.27;5.00;;;24.20;99.90;;;;;;6180891;23;20191;-74
2021/06/21 01:55:14;;;;;;;6.93;4.85;;;24.10;99.90;;;;;;6179395;23;20203;-74
2021/06/21 01:57:45;;;;;;;11.60;5.40;;;24.10;99.90;;;;;;6180775;23;20175;-75
2021/06/21 02:00:13;;;;;;;8.27;4.85;;;24.20;99.90;;;;;;6189677;23;20210;-74
2021/06/21 02:02:43;;;;;;;11.13;5.80;;;24.20;99.90;;;;;;6196561;23;20198;-75
2021/06/21 02:05:16;;;;;;;11.50;6.57;;;24.30;99.90;;;;;;6184555;23;20207;-75
2021/06/21 02:07:46;;;;;;;16.13;6.60;;;24.20;99.90;;;;;;6153881;23;20199;-75
2021/06/21 02:10:14;;;;;;;9.32;5.68;;;24.10;99.90;;;;;;6176779;23;20549;-75
2021/06/21 02:12:43;;;;;;;12.15;5.45;;;24.10;99.90;;;;;;6180478;23;20222;-75
2021/06/21 02:15:11;;;;;;;10.45;5.25;;;24.10;99.90;;;;;;6179483;23;20203;-75
2021/06/21 02:17:39;;;;;;;8.77;4.93;;;24.10;99.90;;;;;;6180399;23;20200;-75
2021/06/21 02:20:11;;;;;;;6.70;4.82;;;24.20;99.90;;;;;;6179517;23;20207;-74
2021/06/21 02:22:38;;;;;;;12.35;4.88;;;24.40;99.90;;;;;;6179071;23;21011;-75
2021/06/21 02:25:08;;;;;;;8.60;4.57;;;24.50;99.90;;;;;;6181011;23;20230;-75
2021/06/21 02:27:37;;;;;;;11.63;5.07;;;24.60;99.90;;;;;;6180641;23;20174;-75
2021/06/21 02:30:08;;;;;;;7.57;5.20;;;24.60;99.90;;;;;;6190528;23;20203;-75
2021/06/21 02:32:36;;;;;;;7.30;4.45;;;24.50;99.90;;;;;;6183518;23;20195;-75
2021/06/21 02:35:04;;;;;;;10.88;5.97;;;24.50;99.90;;;;;;6178139;23;20852;-75
2021/06/21 02:37:32;;;;;;;14.57;6.05;;;24.30;99.90;;;;;;6180625;23;20195;-74
2021/06/21 02:39:59;;;;;;;8.05;4.63;;;24.20;99.90;;;;;;6179938;23;20568;-74
2021/06/21 02:42:26;;;;;;;10.52;5.57;;;24.10;99.90;;;;;;6179573;23;20191;-75
2021/06/21 02:44:53;;;;;;;11.80;4.85;;;24.10;99.90;;;;;;6180030;23;20206;-74
2021/06/21 02:47:20;;;;;;;8.52;4.65;;;24.10;99.90;;;;;;6189832;23;20175;-75
2021/06/21 02:49:48;;;;;;;10.88;5.13;;;24.20;99.90;;;;;;6192974;23;20214;-75
2021/06/21 02:52:25;;;;;;;7.68;5.22;;;24.40;99.90;;;;;;6180072;23;20688;-75
2021/06/21 02:55:07;;;;;;;8.48;5.25;;;24.50;99.90;;;;;;6180024;23;20198;-75
2021/06/21 02:57:42;;;;;;;8.88;5.85;;;24.50;99.90;;;;;;6179132;23;20707;-75
2021/06/21 03:00:09;;;;;;;12.25;6.00;;;24.60;99.90;;;;;;6178702;23;20207;-74
2021/06/21 03:02:40;;;;;;;6.95;4.80;;;24.70;99.90;;;;;;6179945;23;20202;-75
2021/06/21 03:05:08;;;;;;;11.57;5.35;;;24.70;99.90;;;;;;6179673;23;20199;-75
2021/06/21 03:07:36;;;;;;;7.63;4.43;;;24.80;99.90;;;;;;6180753;23;20172;-74
2021/06/21 03:10:06;;;;;;;9.32;4.65;;;24.80;99.90;;;;;;6179106;23;20199;-72
2021/06/21 03:12:34;;;;;;;8.95;5.07;;;24.70;99.90;;;;;;6181665;23;20874;-74
2021/06/21 03:15:02;;;;;;;8.48;4.60;;;24.70;99.90;;;;;;6181501;23;20202;-75
2021/06/21 03:17:29;;;;;;;6.50;5.03;;;24.70;99.90;;;;;;6182475;23;20198;-75
2021/06/21 03:19:57;;;;;;;10.07;5.00;;;24.70;99.90;;;;;;6195805;23;20206;-75
2021/06/21 03:22:26;;;;;;;9.68;5.35;;;24.70;99.90;;;;;;6182944;23;20728;-74
2021/06/21 03:24:53;;;;;;;9.10;4.63;;;24.70;99.90;;;;;;6179457;23;20811;-74
2021/06/21 03:27:30;;;;;;;7.85;4.72;;;24.70;99.90;;;;;;6182070;23;20179;-75
2021/06/21 03:29:58;;;;;;;8.07;4.63;;;24.80;99.90;;;;;;6181649;23;20206;-75
2021/06/21 03:32:28;;;;;;;8.45;5.53;;;24.80;99.90;;;;;;6180853;23;20849;-74
2021/06/21 03:35:00;;;;;;;10.77;5.22;;;24.80;99.90;;;;;;6194596;23;20205;-77
2021/06/21 03:37:27;;;;;;;13.77;5.93;;;24.80;99.90;;;;;;6192358;23;20192;-75
2021/06/21 03:39:54;;;;;;;7.82;4.78;;;24.80;99.90;;;;;;6184012;23;20221;-75
2021/06/21 03:42:22;;;;;;;9.32;5.07;;;24.80;99.90;;;;;;6183210;23;20202;-75
2021/06/21 03:44:53;;;;;;;6.85;4.63;;;24.80;99.90;;;;;;6179983;23;20770;-75
2021/06/21 03:47:20;;;;;;;7.93;4.68;;;24.80;99.90;;;;;;6182546;23;20163;-74
2021/06/21 03:49:49;;;;;;;9.15;5.05;;;24.80;99.90;;;;;;6180313;23;20217;-75
2021/06/21 03:52:17;;;;;;;8.35;4.68;;;24.80;99.90;;;;;;6181403;23;20192;-75
2021/06/21 03:54:44;;;;;;;7.30;4.20;;;24.80;99.90;;;;;;6180963;23;20206;-76
2021/06/21 03:57:12;;;;;;;8.05;5.13;;;24.80;99.90;;;;;;6180612;23;20202;-75
2021/06/21 03:59:39;;;;;;;7.07;5.03;;;24.70;99.90;;;;;;6180301;23;20668;-75
2021/06/21 04:02:08;;;;;;;7.97;4.90;;;24.70;99.90;;;;;;6180354;23;20199;-74
2021/06/21 04:04:35;;;;;;;6.70;4.97;;;24.70;99.90;;;;;;6180866;23;20199;-75
2021/06/21 04:07:02;;;;;;;8.35;4.82;;;24.70;99.90;;;;;;6180223;23;20175;-75
2021/06/21 04:09:29;;;;;;;9.95;4.70;;;24.70;99.90;;;;;;6195572;23;20283;-75
2021/06/21 04:11:56;;;;;;;8.60;4.25;;;24.70;99.90;;;;;;6181141;23;20199;-74
2021/06/21 04:14:23;;;;;;;7.68;4.45;;;24.70;99.90;;;;;;6181148;23;20171;-75
2021/06/21 04:16:50;;;;;;;7.47;4.47;;;24.70;99.90;;;;;;6181107;23;20183;-74
2021/06/21 04:19:19;;;;;;;9.52;5.13;;;24.70;99.90;;;;;;6179944;23;20186;-75
2021/06/21 04:21:46;;;;;;;8.50;4.60;;;24.80;99.90;;;;;;6192534;23;20202;-75
2021/06/21 04:24:13;;;;;;;7.72;4.28;;;24.80;99.90;;;;;;6207209;23;20168;-75
2021/06/21 04:26:41;;;;;;;7.03;4.18;;;24.80;99.90;;;;;;6186130;23;20171;-77
2021/06/21 04:29:08;;;;;;;9.65;4.53;;;24.90;99.90;;;;;;6184778;23;20182;-77
2021/06/21 04:31:35;;;;;;;12.63;5.53;;;24.80;99.90;;;;;;6183435;23;20203;-77
2021/06/21 04:34:02;;;;;;;10.80;5.22;;;24.70;99.90;;;;;;6183927;23;20172;-78
2021/06/21 04:36:30;;;;;;;13.00;5.75;;;24.40;99.90;;;;;;6184249;23;20203;-77
2021/06/21 04:38:58;;;;;;;12.07;5.53;;;24.10;99.90;;;;;;6183766;23;20191;-77
2021/06/21 04:41:25;;;;;;;8.23;4.72;;;24.10;99.90;;;;;;6183735;23;20210;-77
2021/06/21 04:43:52;;;;;;;7.55;4.50;;;24.10;99.90;;;;;;6183782;23;20175;-78
2021/06/21 04:46:19;;;;;;;13.50;5.18;;;24.10;99.90;;;;;;6182488;23;20246;-77
2021/06/21 04:48:48;;;;;;;6.93;4.22;;;24.10;99.90;;;;;;6187183;23;20539;-77
2021/06/21 04:51:17;;;;;;;7.38;4.70;;;24.10;99.90;;;;;;6189766;23;20258;-77
2021/06/21 04:53:47;;;;;;;18.52;5.88;;;24.00;99.90;;;;;;6191494;23;20178;-77
2021/06/21 04:56:15;;;;;;;12.38;5.45;;;24.00;99.90;;;;;;6190923;23;20230;-76
2021/06/21 04:58:42;;;;;;;9.18;4.20;;;23.90;99.90;;;;;;6202366;23;20230;-77
2021/06/21 05:01:09;;;;;;;8.05;5.03;;;23.80;99.90;;;;;;6190004;23;20199;-77
2021/06/21 05:03:37;;;;;;;6.50;4.30;;;23.80;99.90;;;;;;6189580;23;20199;-77
2021/06/21 05:06:05;;;;;;;10.52;5.22;;;23.90;99.90;;;;;;6184969;23;20211;-77
2021/06/21 05:08:32;;;;;;;10.23;5.05;;;23.90;99.90;;;;;;6193858;23;20179;-77
2021/06/21 05:11:01;;;;;;;13.57;6.03;;;23.90;99.90;;;;;;6202745;23;20226;-77
2021/06/21 05:13:28;;;;;;;9.55;5.53;;;23.90;99.90;;;;;;6190475;23;20202;-78
2021/06/21 05:15:55;;;;;;;10.35;5.57;;;24.00;99.90;;;;;;6190468;23;20199;-76
2021/06/21 05:18:22;;;;;;;8.38;5.07;;;24.00;99.90;;;;;;6188330;23;20195;-76
2021/06/21 05:20:49;;;;;;;6.72;4.78;;;24.00;99.90;;;;;;6185931;23;20684;-79
2021/06/21 05:23:19;;;;;;;8.95;5.30;;;24.10;99.90;;;;;;6189556;23;20593;-76
2021/06/21 05:26:43;;;;;;;10.05;5.30;;;24.20;99.90;;;;;;6189358;23;20207;-78
2021/06/21 05:29:36;;;;;;;7.40;5.07;;;24.30;99.90;;;;;;6187358;23;20708;-77
2021/06/21 05:32:04;;;;;;;13.82;5.63;;;24.50;99.90;;;;;;6163644;23;20195;-78
2021/06/21 05:34:31;;;;;;;12.20;5.53;;;24.50;99.90;;;;;;6189563;23;20243;-78
2021/06/21 05:36:58;;;;;;;14.55;5.85;;;24.40;99.90;;;;;;6188887;23;20207;-78
2021/06/21 05:39:26;;;;;;;16.80;6.47;;;24.50;99.90;;;;;;6188321;23;20253;-78
2021/06/21 05:42:00;;;;;;;14.07;6.80;;;24.40;99.90;;;;;;6146148;23;20207;-78
2021/06/21 05:44:31;;;;;;;13.20;6.10;;;24.40;99.90;;;;;;6187134;23;20213;-78
2021/06/21 05:47:47;;;;;;;13.70;6.10;;;24.50;99.90;;;;;;6185743;23;20214;-79
2021/06/21 05:50:16;;;;;;;14.48;6.75;;;24.70;99.90;;;;;;6189334;23;20470;-76
2021/06/21 05:52:44;;;;;;;11.73;5.90;;;24.80;99.90;;;;;;6186560;23;20671;-77
2021/06/21 05:58:44;;;;;;;15.52;6.40;;;25.00;99.90;;;;;;6193001;23;20195;-75
2021/06/21 06:03:58;;;;;;;12.73;6.53;;;25.20;99.90;;;;;;6275663;22;20177;-77
2021/06/21 06:06:25;;;;;;;12.90;6.55;;;25.10;99.90;;;;;;6276359;22;20201;-77
2021/06/21 06:08:53;;;;;;;16.60;6.10;;;25.10;99.90;;;;;;6277911;22;20188;-77
2021/06/21 06:11:20;;;;;;;15.20;6.53;;;25.20;99.90;;;;;;6276251;22;20197;-78
2021/06/21 06:13:48;;;;;;;13.68;6.30;;;25.20;99.90;;;;;;6272746;22;20652;-78
2021/06/21 06:16:15;;;;;;;17.35;6.97;;;25.20;99.90;;;;;;6276954;22;20242;-77
2021/06/21 06:18:44;;;;;;;17.13;7.05;;;25.20;99.90;;;;;;6275208;22;20197;-77
2021/06/21 06:21:13;;;;;;;13.65;6.35;;;25.30;99.90;;;;;;6277248;22;20202;-77
2021/06/21 06:23:40;;;;;;;14.00;6.70;;;25.30;99.90;;;;;;6276788;22;20189;-78
2021/06/21 06:26:07;;;;;;;19.40;7.13;;;25.50;99.90;;;;;;6276503;22;20193;-78
2021/06/21 06:28:35;;;;;;;14.52;6.60;;;25.50;99.90;;;;;;6277004;22;20172;-78
2021/06/21 06:31:02;;;;;;;14.35;6.85;;;25.60;99.90;;;;;;6277356;22;20224;-78
2021/06/21 06:33:29;;;;;;;16.48;6.57;;;25.60;99.90;;;;;;6276945;22;20194;-78
2021/06/21 06:35:56;;;;;;;14.98;6.10;;;25.70;99.90;;;;;;6274709;22;20801;-77
2021/06/21 06:38:25;;;;;;;12.18;6.40;;;25.70;99.90;;;;;;6292982;22;20193;-78
2021/06/21 06:40:52;;;;;;;10.88;5.45;;;25.80;99.90;;;;;;6276942;22;20232;-77
2021/06/21 06:43:19;;;;;;;14.90;6.32;;;25.90;99.90;;;;;;6287468;22;20200;-78
2021/06/21 06:45:46;;;;;;;12.45;6.20;;;26.00;99.90;;;;;;6288812;22;20197;-76
2021/06/21 06:48:13;;;;;;;18.35;7.45;;;26.10;99.90;;;;;;6276674;22;20176;-77
2021/06/21 06:50:40;;;;;;;17.27;6.72;;;26.10;99.90;;;;;;6271752;22;20197;-76
2021/06/21 06:53:08;;;;;;;15.40;6.60;;;26.20;99.90;;;;;;6273321;22;20193;-76
2021/06/21 06:58:21;;;;;;;12.05;6.30;;;26.50;99.90;;;;;;6283399;22;20184;-80
2021/06/21 07:00:48;;;;;;;13.50;6.72;;;26.80;99.90;;;;;;6294134;22;20203;-78
2021/06/21 07:03:15;;;;;;;17.45;6.85;;;26.90;99.90;;;;;;6275032;22;20197;-76
2021/06/21 07:05:43;;;;;;;17.08;7.25;;;26.80;99.90;;;;;;6272041;22;20205;-76
2021/06/21 07:08:10;;;;;;;21.55;7.60;;;26.80;99.90;;;;;;6272913;22;20239;-75
2021/06/21 07:10:39;;;;;;;17.80;6.90;;;26.90;99.90;;;;;;6273399;22;20166;-77
2021/06/21 07:13:06;;;;;;;19.23;7.72;;;26.90;99.90;;;;;;6270115;22;20200;-76
2021/06/21 07:15:33;;;;;;;18.75;7.50;;;26.90;99.90;;;;;;6272079;22;20178;-77
2021/06/21 07:18:00;;;;;;;12.55;6.35;;;26.90;99.90;;;;;;6271493;22;20189;-76
2021/06/21 07:20:27;;;;;;;15.88;6.97;;;27.00;99.90;;;;;;6272795;22;20641;-76
2021/06/21 07:22:54;;;;;;;17.70;6.60;;;27.20;99.90;;;;;;6271956;22;20190;-77
2021/06/21 07:25:21;;;;;;;16.40;6.30;;;27.50;99.90;;;;;;6274009;22;20192;-77
2021/06/21 07:27:50;;;;;;;20.50;6.82;;;27.70;99.90;;;;;;6285953;22;20201;-77
2021/06/21 07:30:18;;;;;;;18.63;7.20;;;27.70;99.90;;;;;;6284049;22;20174;-78
2021/06/21 07:32:45;;;;;;;15.48;6.93;;;27.60;99.90;;;;;;6286292;22;20205;-75
2021/06/21 07:35:13;;;;;;;24.60;8.00;;;27.50;99.90;;;;;;6271913;22;20208;-75
2021/06/21 07:37:40;;;;;;;18.95;6.95;;;27.40;99.90;;;;;;6273187;22;20205;-76
2021/06/21 07:40:08;;;;;;;14.98;7.43;;;27.60;99.90;;;;;;6270902;22;20209;-75
2021/06/21 07:42:36;;;;;;;15.02;6.38;;;27.60;99.90;;;;;;6272422;22;20539;-77
2021/06/21 07:45:05;;;;;;;16.08;6.50;;;27.90;99.90;;;;;;6272449;22;20180;-77
2021/06/21 07:47:32;;;;;;;11.30;5.55;;;28.30;99.90;;;;;;6272202;22;20198;-76
2021/06/21 07:49:59;;;;;;;12.43;6.95;;;28.60;99.90;;;;;;6270392;22;20170;-77
2021/06/21 07:52:26;;;;;;;21.05;7.15;;;28.90;99.90;;;;;;6273673;22;20213;-76
2021/06/21 07:54:58;;;;;;;16.20;7.18;;;28.70;99.90;;;;;;6271762;22;20630;-75
2021/06/21 07:57:26;;;;;;;13.70;6.20;;;28.70;99.90;;;;;;6273305;22;20198;-77
2021/06/21 07:59:53;;;;;;;17.52;7.63;;;28.70;99.90;;;;;;6275301;22;20228;-76
2021/06/21 08:02:22;;;;;;;19.77;8.05;;;28.90;99.90;;;;;;6272667;22;20221;-76
2021/06/21 08:04:50;;;;;;;12.32;6.40;;;28.90;99.90;;;;;;6276469;22;20192;-77
2021/06/21 08:07:17;;;;;;;12.38;6.32;;;28.90;99.90;;;;;;6273226;22;20541;-76
2021/06/21 08:09:44;;;;;;;26.92;9.48;;;28.90;99.90;;;;;;6272529;22;20165;-76
2021/06/21 08:12:12;;;;;;;15.77;6.90;;;29.00;99.90;;;;;;6273021;22;20273;-76
2021/06/21 08:14:41;;;;;;;18.00;7.05;;;29.00;99.90;;;;;;6275571;22;20630;-77
2021/06/21 08:17:09;;;;;;;19.45;6.90;;;29.00;99.90;;;;;;6291835;22;20205;-77
2021/06/21 08:19:37;;;;;;;18.27;6.97;;;29.00;99.90;;;;;;6288346;22;20199;-77
2021/06/21 08:22:05;;;;;;;18.00;6.75;;;29.00;99.90;;;;;;6273943;22;20205;-76
2021/06/21 08:24:32;;;;;;;19.83;6.95;;;29.20;99.90;;;;;;6275236;22;20174;-76
2021/06/21 08:27:02;;;;;;;18.80;7.40;;;29.10;99.90;;;;;;6273828;22;20198;-77
2021/06/21 08:29:29;;;;;;;19.33;8.60;;;29.20;99.90;;;;;;6274769;22;20172;-77
2021/06/21 08:31:56;;;;;;;11.68;5.68;;;29.10;99.90;;;;;;6273236;22;20208;-76
2021/06/21 08:34:23;;;;;;;12.65;6.05;;;29.30;99.90;;;;;;6273759;22;20177;-76
2021/06/21 08:36:52;;;;;;;15.68;6.78;;;29.50;99.90;;;;;;6275845;22;20695;-76
2021/06/21 08:39:19;;;;;;;19.10;6.75;;;29.50;99.90;;;;;;6274689;22;20677;-76
2021/06/21 08:41:46;;;;;;;18.35;6.63;;;29.50;99.90;;;;;;6274806;22;20202;-76
2021/06/21 08:44:13;;;;;;;18.65;7.25;;;29.60;99.90;;;;;;6272961;22;20202;-76
2021/06/21 08:46:42;;;;;;;15.60;6.65;;;29.70;99.90;;;;;;6274380;22;20202;-77
2021/06/21 08:49:11;;;;;;;16.75;6.30;;;29.70;99.90;;;;;;6272879;22;20169;-77
2021/06/21 08:51:41;;;;;;;16.80;6.60;;;29.80;99.90;;;;;;6273000;22;20209;-77
2021/06/21 08:54:09;;;;;;;15.43;6.30;;;30.10;99.90;;;;;;6270649;22;20180;-77
2021/06/21 08:56:36;;;;;;;17.02;6.00;;;30.30;99.90;;;;;;6269605;22;20791;-76
2021/06/21 08:59:06;;;;;;;15.10;6.72;;;30.30;99.90;;;;;;6272906;22;20272;-76
2021/06/21 09:01:34;;;;;;;13.35;5.63;;;30.40;99.90;;;;;;6272683;22;20231;-76
2021/06/21 09:04:01;;;;;;;16.40;6.07;;;30.50;99.90;;;;;;6276901;22;20170;-77
2021/06/21 09:06:39;;;;;;;22.02;6.85;;;30.70;99.90;;;;;;6292882;22;20256;-77
2021/06/21 09:09:07;;;;;;;24.73;6.47;;;30.80;99.90;;;;;;6277893;22;20238;-77
2021/06/21 09:11:55;;;;;;;26.27;6.75;;;30.70;99.90;;;;;;6273339;22;20429;-76
2021/06/21 09:14:34;;;;;;;24.58;7.10;;;30.70;99.90;;;;;;6277393;22;20169;-76
2021/06/21 09:17:03;;;;;;;27.48;6.53;;;30.80;99.90;;;;;;6274106;22;20204;-77
2021/06/21 09:19:31;;;;;;;31.70;7.43;;;30.80;99.90;;;;;;6271823;22;20196;-76
2021/06/21 09:21:58;;;;;;;30.55;7.55;;;30.80;99.90;;;;;;6270802;22;20212;-77
2021/06/21 09:24:27;;;;;;;24.08;6.40;;;30.70;99.90;;;;;;6276675;22;20173;-76
2021/06/21 09:26:58;;;;;;;21.27;6.82;;;30.50;99.90;;;;;;6274844;22;20393;-76
2021/06/21 09:29:39;;;;;;;21.63;6.82;;;30.60;99.90;;;;;;6287743;22;20751;-77
2021/06/21 09:32:07;;;;;;;26.08;6.53;;;30.90;99.90;;;;;;6286239;22;20209;-77
2021/06/21 09:34:35;;;;;;;33.70;7.18;;;30.90;99.90;;;;;;6274535;22;20178;-77
2021/06/21 09:37:09;;;;;;;23.48;6.68;;;31.10;99.90;;;;;;6274404;22;20208;-78
2021/06/21 09:39:39;;;;;;;25.80;6.38;;;31.10;99.90;;;;;;6274056;22;20173;-76
2021/06/21 09:42:19;;;;;;;31.45;7.40;;;31.00;99.90;;;;;;6272590;22;20549;-77
2021/06/21 09:44:47;;;;;;;23.88;6.32;;;31.10;99.90;;;;;;6273153;22;20153;-77
2021/06/21 09:47:17;;;;;;;31.40;6.55;;;31.00;99.90;;;;;;6271075;22;20212;-77
2021/06/21 09:50:09;;;;;;;28.80;6.38;;;31.00;99.90;;;;;;6272071;22;20186;-77
2021/06/21 09:52:42;;;;;;;26.48;6.53;;;30.90;99.90;;;;;;6285968;22;20205;-77
2021/06/21 09:55:19;;;;;;;22.40;6.38;;;30.80;99.90;;;;;;6276312;22;20217;-80
2021/06/21 09:57:49;;;;;;;30.80;6.70;;;30.90;99.90;;;;;;6275599;22;20215;-77
2021/06/21 10:00:18;;;;;;;28.30;6.68;;;30.90;99.90;;;;;;6267500;22;20188;-76
2021/06/21 10:02:45;;;;;;;28.27;6.50;;;30.90;99.90;;;;;;6268102;22;20213;-76
2021/06/21 10:05:23;;;;;;;39.50;8.45;;;30.90;99.90;;;;;;6263605;22;20238;-76
2021/06/21 10:07:50;;;;;;;24.85;5.95;;;31.00;99.90;;;;;;6265393;22;20275;-77
2021/06/21 10:10:21;;;;;;;33.95;8.02;;;31.00;99.90;;;;;;6265412;22;20170;-77
2021/06/21 10:12:49;;;;;;;34.38;7.20;;;31.00;99.90;;;;;;6267304;22;20205;-75
2021/06/21 10:15:17;;;;;;;33.70;7.20;;;30.90;99.90;;;;;;6265566;22;20182;-77
2021/06/21 10:17:46;;;;;;;38.85;6.75;;;30.70;99.90;;;;;;6266985;22;20217;-76
2021/06/21 10:20:13;;;;;;;34.42;7.47;;;30.80;99.90;;;;;;6265780;22;20212;-76
2021/06/21 10:22:41;;;;;;;23.98;5.75;;;30.90;99.90;;;;;;6266025;22;20213;-75
2021/06/21 10:25:10;;;;;;;37.85;7.32;;;30.90;99.90;;;;;;6268385;22;20173;-76
2021/06/21 10:27:41;;;;;;;29.40;6.47;;;31.00;99.90;;;;;;6267565;22;20213;-75
2021/06/21 10:30:13;;;;;;;24.00;6.32;;;31.00;99.90;;;;;;6264745;22;20233;-76
2021/06/21 10:32:41;;;;;;;22.27;6.03;;;31.00;99.90;;;;;;6264114;22;20259;-76
2021/06/21 10:35:11;;;;;;;22.13;5.88;;;31.30;99.90;;;;;;6268229;22;20181;-78
2021/06/21 10:37:39;;;;;;;24.90;6.57;;;31.50;99.90;;;;;;6269166;22;20201;-75
2021/06/21 10:40:09;;;;;;;30.98;6.75;;;31.40;99.90;;;;;;6291326;22;20195;-76
2021/06/21 10:42:43;;;;;;;29.90;7.07;;;31.10;99.90;;;;;;6267727;22;20209;-77
2021/06/21 10:45:18;;;;;;;27.88;6.57;;;31.00;99.90;;;;;;6276807;22;20153;-77
2021/06/21 10:47:46;;;;;;;26.00;6.15;;;31.30;99.90;;;;;;6267547;22;20239;-77
2021/06/21 10:50:23;;;;;;;20.63;6.47;;;31.40;99.90;;;;;;6268187;22;20165;-77
2021/06/21 10:53:01;;;;;;;24.73;6.07;;;31.80;99.90;;;;;;6265716;22;20212;-77
2021/06/21 10:55:42;;;;;;;24.92;6.05;;;32.10;99.90;;;;;;6265985;22;20162;-77
2021/06/21 10:58:26;;;;;;;27.15;5.45;;;31.90;99.90;;;;;;6264879;22;20197;-77
2021/06/21 11:00:56;;;;;;;25.50;6.05;;;32.10;99.90;;;;;;6262349;22;20874;-76
2021/06/21 11:03:37;;;;;;;26.85;5.35;;;32.00;99.90;;;;;;6264366;22;20197;-77
2021/06/21 11:06:06;;;;;;;26.27;6.05;;;32.00;99.90;;;;;;6266972;22;20222;-77
2021/06/21 11:08:54;;;;;;;24.23;5.90;;;32.10;99.90;;;;;;6270653;22;20180;-77
2021/06/21 11:11:51;;;;;;;23.60;5.60;;;32.30;99.90;;;;;;6271440;22;20224;-76
2021/06/21 11:14:26;;;;;;;25.67;5.95;;;32.40;99.90;;;;;;6251351;22;20211;-76
2021/06/21 11:17:20;;;;;;;30.90;6.55;;;32.40;99.90;;;;;;6269262;22;20476;-77
2021/06/21 11:19:47;;;;;;;29.50;5.80;;;32.30;99.90;;;;;;6271526;22;20181;-76
2021/06/21 11:22:16;;;;;;;27.40;6.13;;;32.40;99.90;;;;;;6274075;22;20704;-77
2021/06/21 11:24:51;;;;;;;25.50;6.50;;;32.60;99.90;;;;;;6274817;22;20174;-77
2021/06/21 11:27:20;;;;;;;24.17;5.97;;;32.60;99.90;;;;;;6284151;22;20200;-77
2021/06/21 11:29:50;;;;;;;18.10;5.30;;;32.60;99.90;;;;;;6271601;22;20154;-78
2021/06/21 11:32:19;;;;;;;22.23;5.30;;;32.50;99.40;;;;;;6272547;22;20712;-77
2021/06/21 11:34:49;;;;;;;29.85;6.40;;;32.50;99.40;;;;;;6281061;22;20201;-77
2021/06/21 11:37:40;;;;;;;17.95;5.30;;;32.30;98.80;;;;;;6270965;22;20197;-77
2021/06/21 11:40:30;;;;;;;37.22;7.03;;;32.30;97.00;;;;;;6273550;22;20196;-75
2021/06/21 11:43:18;;;;;;;28.83;6.18;;;32.20;97.60;;;;;;6268666;22;20209;-77
2021/06/21 11:45:57;;;;;;;25.40;6.28;;;32.10;98.50;;;;;;6272524;22;20363;-75
2021/06/21 11:48:31;;;;;;;25.73;5.65;;;32.30;99.30;;;;;;6265379;22;20225;-75
2021/06/21 11:51:00;;;;;;;26.73;5.93;;;32.60;98.50;;;;;;6270837;22;20153;-78
2021/06/21 11:53:28;;;;;;;27.00;6.03;;;32.70;98.80;;;;;;6264697;22;20205;-76
2021/06/21 11:55:56;;;;;;;31.95;7.15;;;32.70;98.50;;;;;;6270393;22;20181;-78
2021/06/21 11:58:31;;;;;;;24.20;5.88;;;32.50;98.20;;;;;;6264434;22;20201;-77
2021/06/21 12:00:59;;;;;;;30.15;6.10;;;32.50;98.30;;;;;;6281084;22;20177;-76
2021/06/21 12:03:38;;;;;;;24.38;5.90;;;32.70;99.00;;;;;;6279196;22;20558;-77
2021/06/21 12:06:06;;;;;;;29.65;6.10;;;32.80;98.40;;;;;;6271424;22;20162;-78
2021/06/21 12:08:37;;;;;;;26.98;5.82;;;32.90;98.10;;;;;;6268258;22;20185;-79
2021/06/21 12:11:15;;;;;;;36.17;6.20;;;33.00;97.70;;;;;;6268135;22;20223;-75
2021/06/21 12:13:43;;;;;;;21.10;5.00;;;32.80;97.10;;;;;;6278911;22;20550;-78
2021/06/21 12:16:15;;;;;;;25.52;5.15;;;32.90;97.50;;;;;;6274231;22;20177;-76
2021/06/21 12:18:49;;;;;;;19.30;5.72;;;32.90;97.20;;;;;;6270817;22;20811;-76
2021/06/21 12:21:29;;;;;;;22.33;5.55;;;32.80;97.30;;;;;;6268600;22;20521;-77
2021/06/21 12:23:56;;;;;;;17.98;5.22;;;33.10;97.00;;;;;;6278310;22;20212;-77
2021/06/21 12:26:23;;;;;;;26.20;5.78;;;33.40;96.90;;;;;;6270380;22;20170;-78
2021/06/21 12:28:50;;;;;;;23.48;5.10;;;33.50;95.80;;;;;;6267499;22;20662;-76
2021/06/21 12:31:18;;;;;;;27.17;6.35;;;33.50;95.80;;;;;;6267282;22;20191;-77
2021/06/21 12:33:46;;;;;;;25.50;6.07;;;33.30;95.60;;;;;;6267456;22;20213;-78
2021/06/21 12:36:16;;;;;;;20.95;4.75;;;33.20;95.00;;;;;;6269182;22;20521;-76
2021/06/21 12:38:54;;;;;;;23.10;5.47;;;33.20;94.90;;;;;;6269928;22;20977;-77
2021/06/21 12:41:24;;;;;;;21.00;5.05;;;33.10;93.90;;;;;;6267499;22;20182;-76
2021/06/21 12:44:09;;;;;;;26.92;6.03;;;32.90;93.80;;;;;;6269021;22;20198;-76
2021/06/21 12:46:37;;;;;;;18.90;4.95;;;32.90;93.60;;;;;;6268126;22;20180;-77
2021/06/21 12:49:08;;;;;;;28.30;5.68;;;32.90;93.90;;;;;;6269740;22;20166;-77
2021/06/21 12:51:36;;;;;;;17.67;4.40;;;33.10;93.70;;;;;;6266853;22;20158;-75
2021/06/21 12:54:04;;;;;;;25.65;5.00;;;33.10;92.00;;;;;;6269557;22;20212;-77
2021/06/21 12:56:34;;;;;;;23.20;5.15;;;33.00;92.80;;;;;;6270487;22;20174;-79
2021/06/21 12:59:02;;;;;;;26.45;5.38;;;33.00;93.20;;;;;;6267912;22;20205;-75
2021/06/21 13:01:31;;;;;;;15.02;4.55;;;33.00;93.50;;;;;;6281650;22;20197;-77
2021/06/21 13:04:00;;;;;;;19.58;4.68;;;33.10;93.70;;;;;;6268235;22;20209;-77